Aérodrome :
LOGIN :

S'inscrire | Disclaimer

   EN    FR    IT 

 










Légende :    VFR   VFR Marginal   IFR   IFR Intensif   IFR Très Intensif
Visi : 
Plafond : 
>= 8 km
>= 3000ft
5 à 8 km
1000 à 3000 ft
1500m à 5 km
500 à 1000 ft
800 à 1500m
200 à 500 ft
< 800m
< 200 ft
Symboles :   Orages  Brouillard  Fortes neiges  Fortes précipitations  Vent > 20 kt
SIGMETs :   Divers  Orages  Givrage  Turbulence  Onde Orograph.  Cendres Volcan.







- Altitude de l'aérodrome : 24 ft
- Code IATA : SGD


EKSB - Sonderborg

DERNIER METAR :
  • 171020Z 28014G25KT 240V320 9999 FEW025TCU SCT040 13/06 Q1010

METARs EXPIRÉS :
  • 170951Z 28012KT 250V310 9999 FEW025TCU SCT040 12/07 Q1010 RESHRA
  • 170920Z 30015G25KT 260V320 9999 -SHRA SCT025TCU BKN040 11/06 Q1011
  • 170850Z 31018G28KT 9999 -SHRA SCT025TCU BKN050 12/06 Q1011
  • 170820Z 28012G22KT 250V320 9999 VCSH FEW025TCU 13/06 Q1010
  • 170750Z 28009KT 240V320 9999 FEW025 SCT053 13/06 Q1011

TAF TAF EKSB
Valide du 17 à 09h jusqu'au 17 à 18h UTC


170851Z 1709/1718 29015KT 9999 SCT030
TEMPO 1709/1716 30020G35KT 4000 SHRA BKN020CB
TEMPO 1716/1717 30018G28KT
Pas de NOTAMs connus pour ce terrain.



MET'MAP, la Météo Aéronautique d'un coup d'oeil ! - Copyright ORBIFLY Décembre 2007 - Disclaimer

ORBIFLY MET'MAP TEAM :

Programmation & Développement : Alexandra Zaïnal
Conception & Développement : Baudouin d'Aumeries
Co-Programmation & Développement : Marc-Olivier Méhu
Soutien technique & logistique : Manuel Goepfert

Contact : metmap@orbifly.com




SOURCES & CREDITS :

   NOAA